Time;durP1;ratioP1;P1;durP2;ratioP2;P2;SDS_P1;SDS_P2;PMS_P1;PMS_P2;Temp;Humidity;BMP_temperature;BMP_pressure;BME280_temperature;BME280_humidity;BME280_pressure;Samples;Min_cycle;Max_cycle;Signal;HPM_P1;HPM_P2
2021/12/29 00:00:07;;;;;;;90.50;40.10;;;179.40;2124.80;;;;;;5094933;28;20025;-64
2021/12/29 00:02:33;;;;;;;86.25;39.17;;;179.30;2150.40;;;;;;5094839;28;20088;-65
2021/12/29 00:04:58;;;;;;;102.10;43.88;;;179.30;2150.40;;;;;;5094480;28;20486;-65
2021/12/29 00:07:25;;;;;;;98.45;43.45;;;179.50;2124.80;;;;;;5094777;28;20028;-64
2021/12/29 00:09:51;;;;;;;99.82;41.70;;;179.50;2099.20;;;;;;5076206;28;20044;-64
2021/12/29 00:12:24;;;;;;;96.72;43.42;;;179.50;2124.80;;;;;;5094629;28;20020;-64
2021/12/29 00:14:50;;;;;;;113.35;45.63;;;179.50;2124.80;;;;;;5094630;28;20385;-63
2021/12/29 00:17:16;;;;;;;101.40;43.55;;;179.50;2073.60;;;;;;5076175;28;20509;-64
2021/12/29 00:19:42;;;;;;;100.03;41.50;;;179.60;2099.20;;;;;;5094481;28;20066;-63
2021/12/29 00:22:08;;;;;;;103.72;41.15;;;179.60;2099.20;;;;;;5093954;28;20386;-63
2021/12/29 00:24:33;;;;;;;92.88;37.75;;;179.50;2073.60;;;;;;5094272;28;20030;-63
2021/12/29 00:26:59;;;;;;;97.68;39.47;;;179.50;2073.60;;;;;;5094523;28;20099;-63
2021/12/29 00:29:25;;;;;;;104.28;41.78;;;179.50;2099.20;;;;;;5094332;28;20060;-62
2021/12/29 00:31:50;;;;;;;109.25;43.22;;;179.40;2073.60;;;;;;5094386;28;20469;-63
2021/12/29 00:34:16;;;;;;;106.10;43.22;;;179.50;2073.60;;;;;;5094074;28;20047;-62
2021/12/29 00:36:42;;;;;;;96.63;43.30;;;179.40;2150.40;;;;;;5075412;28;20520;-62
2021/12/29 00:39:08;;;;;;;96.93;43.17;;;179.30;2124.80;;;;;;5094199;28;20089;-62
2021/12/29 00:41:34;;;;;;;94.20;41.40;;;179.30;2099.20;;;;;;5094358;28;20505;-61
2021/12/29 00:44:00;;;;;;;92.22;41.28;;;179.40;2048.00;;;;;;5094107;28;20028;-62
2021/12/29 00:46:25;;;;;;;92.55;39.03;;;179.30;2099.20;;;;;;5093672;28;20035;-61
2021/12/29 00:48:51;;;;;;;89.57;38.58;;;179.30;2150.40;;;;;;5094030;28;20032;-61
2021/12/29 00:51:17;;;;;;;89.55;39.38;;;179.30;2073.60;;;;;;5093791;28;20031;-62
2021/12/29 00:53:43;;;;;;;100.60;41.35;;;179.30;2022.40;;;;;;5093816;28;20036;-61
2021/12/29 00:56:10;;;;;;;100.32;41.75;;;154.50;2124.80;;;;;;5075725;28;20377;-62
2021/12/29 00:58:35;;;;;;;103.38;41.35;;;179.20;2150.40;;;;;;5093920;28;20051;-62
2021/12/29 01:01:02;;;;;;;100.35;40.60;;;179.20;2073.60;;;;;;5093794;28;20428;-62
2021/12/29 01:03:28;;;;;;;101.72;40.17;;;179.20;2048.00;;;;;;5094232;28;20031;-62
2021/12/29 01:05:54;;;;;;;100.88;42.35;;;154.50;2124.80;;;;;;5093628;28;20024;-62
2021/12/29 01:08:20;;;;;;;108.57;42.78;;;154.50;2150.40;;;;;;5093737;28;20028;-62
2021/12/29 01:10:46;;;;;;;104.35;43.45;;;179.20;2099.20;;;;;;5093534;28;20048;-62
2021/12/29 01:13:18;;;;;;;105.93;43.25;;;154.40;2099.20;;;;;;5093844;28;20381;-62
2021/12/29 01:18:29;;;;;;;103.95;42.70;;;154.20;2124.80;;;;;;5114617;28;20030;-62
2021/12/29 01:20:55;;;;;;;112.13;43.17;;;154.20;2124.80;;;;;;5113419;28;20114;-62
2021/12/29 01:23:22;;;;;;;123.13;46.33;;;154.20;2150.40;;;;;;5114133;28;20058;-62
2021/12/29 01:25:48;;;;;;;169.70;51.08;;;154.30;2201.60;;;;;;5113747;28;20076;-62
2021/12/29 01:28:13;;;;;;;127.10;48.92;;;154.40;2252.80;;;;;;5113923;28;20388;-64
2021/12/29 01:30:39;;;;;;;122.03;51.15;;;154.50;2252.80;;;;;;5113956;28;20027;-62
2021/12/29 01:33:08;;;;;;;133.57;53.05;;;179.20;2252.80;;;;;;5117531;28;20015;-62
2021/12/29 01:35:35;;;;;;;132.95;52.95;;;179.20;2201.60;;;;;;5117830;28;20032;-62
2021/12/29 01:38:02;;;;;;;136.93;52.28;;;179.20;2176.00;;;;;;5117973;28;20020;-62
2021/12/29 01:40:29;;;;;;;131.95;49.80;;;179.20;2201.60;;;;;;5099536;28;20027;-63
2021/12/29 01:42:55;;;;;;;121.07;50.00;;;179.20;2176.00;;;;;;5117944;28;20031;-63
2021/12/29 01:45:21;;;;;;;136.57;52.92;;;179.20;2176.00;;;;;;5118002;28;20488;-63
2021/12/29 01:47:48;;;;;;;139.52;53.72;;;179.20;2201.60;;;;;;5117742;28;20380;-64
2021/12/29 01:50:15;;;;;;;140.23;55.53;;;179.20;2176.00;;;;;;5117412;28;20389;-64
2021/12/29 01:52:42;;;;;;;145.40;53.08;;;179.20;2176.00;;;;;;5117765;28;20052;-64
2021/12/29 01:55:11;;;;;;;132.25;52.55;;;179.30;2176.00;;;;;;5117516;28;20459;-65
2021/12/29 01:57:38;;;;;;;135.80;53.75;;;179.30;2176.00;;;;;;5117667;28;20031;-65
2021/12/29 02:00:08;;;;;;;137.13;51.63;;;179.40;2150.40;;;;;;5117594;28;20039;-64
2021/12/29 02:02:34;;;;;;;135.25;54.40;;;179.40;2176.00;;;;;;5117104;28;20027;-64
2021/12/29 02:05:00;;;;;;;139.48;52.72;;;179.40;2176.00;;;;;;5117555;28;20031;-64
2021/12/29 02:07:25;;;;;;;137.30;53.33;;;179.50;2176.00;;;;;;5117456;28;20419;-64
2021/12/29 02:09:51;;;;;;;130.27;50.08;;;179.40;2176.00;;;;;;5117369;28;20393;-65
2021/12/29 02:12:18;;;;;;;130.27;51.78;;;179.40;2176.00;;;;;;5117461;28;20040;-65
2021/12/29 02:14:44;;;;;;;125.25;49.30;;;179.40;2150.40;;;;;;5116930;28;20027;-64
2021/12/29 02:17:12;;;;;;;131.43;51.47;;;179.50;2150.40;;;;;;5117246;28;20114;-65
2021/12/29 02:19:44;;;;;;;128.52;51.15;;;179.50;2176.00;;;;;;5117194;28;20096;-64
2021/12/29 02:22:20;;;;;;;136.18;49.67;;;179.50;2176.00;;;;;;5116978;28;20026;-64
2021/12/29 02:24:53;;;;;;;122.80;48.22;;;179.50;2150.40;;;;;;5117135;28;20106;-65
2021/12/29 02:27:19;;;;;;;132.82;50.97;;;179.50;2176.00;;;;;;5117118;28;20038;-64
2021/12/29 02:29:47;;;;;;;136.18;51.75;;;179.50;2150.40;;;;;;5116739;28;20427;-63
2021/12/29 02:32:14;;;;;;;119.45;47.53;;;179.50;2150.40;;;;;;5098235;28;20038;-64
2021/12/29 02:34:40;;;;;;;119.10;48.05;;;179.60;2150.40;;;;;;5116779;28;20031;-64
2021/12/29 02:37:07;;;;;;;95.80;41.65;;;179.60;2150.40;;;;;;5116703;28;20023;-64
2021/12/29 02:39:37;;;;;;;93.70;40.03;;;179.60;2150.40;;;;;;5116837;28;20395;-63
2021/12/29 02:42:05;;;;;;;84.43;38.00;;;179.60;2150.40;;;;;;5116877;28;20023;-63
2021/12/29 02:44:38;;;;;;;76.60;33.50;;;179.70;2150.40;;;;;;5115934;28;20487;-64
2021/12/29 02:47:05;;;;;;;69.25;30.77;;;179.70;2150.40;;;;;;5116670;28;20024;-64
2021/12/29 02:49:31;;;;;;;72.63;32.42;;;179.70;2150.40;;;;;;5116646;28;20035;-63
2021/12/29 02:51:58;;;;;;;62.85;28.85;;;179.80;2150.40;;;;;;5116470;28;20024;-62
2021/12/29 02:54:23;;;;;;;58.72;27.15;;;179.80;2124.80;;;;;;5098071;28;20194;-62
2021/12/29 02:56:54;;;;;;;57.78;26.27;;;179.80;2124.80;;;;;;5115959;28;20426;-63
2021/12/29 02:59:21;;;;;;;58.47;25.13;;;179.90;2124.80;;;;;;5116813;28;20024;-63
2021/12/29 03:01:47;;;;;;;55.97;24.85;;;179.90;2099.20;;;;;;5116333;28;20697;-63
2021/12/29 03:04:13;;;;;;;55.50;24.10;;;179.90;2124.80;;;;;;5115911;28;20032;-63
2021/12/29 03:06:40;;;;;;;54.75;24.20;;;179.90;2124.80;;;;;;5116214;28;20023;-63
2021/12/29 03:09:10;;;;;;;55.78;25.00;;;180.00;2099.20;;;;;;5097573;28;20040;-63
2021/12/29 03:11:36;;;;;;;50.63;24.25;;;179.90;2099.20;;;;;;5116353;28;20028;-63
2021/12/29 03:14:02;;;;;;;52.35;24.17;;;179.90;2124.80;;;;;;5116154;28;20072;-63
2021/12/29 03:16:29;;;;;;;55.95;25.10;;;179.90;2099.20;;;;;;5115532;28;20435;-64
2021/12/29 03:18:54;;;;;;;55.67;25.45;;;179.90;2124.80;;;;;;5115996;28;20481;-64
2021/12/29 03:21:20;;;;;;;55.65;26.50;;;179.90;2124.80;;;;;;5115966;28;20058;-64
2021/12/29 03:23:48;;;;;;;58.13;25.52;;;180.00;2099.20;;;;;;5115998;28;20476;-64
2021/12/29 03:26:14;;;;;;;58.97;26.80;;;180.00;2099.20;;;;;;5107790;28;20023;-65
2021/12/29 03:28:40;;;;;;;57.75;25.90;;;179.90;2099.20;;;;;;5115261;28;20039;-65
2021/12/29 03:31:10;;;;;;;52.47;23.92;;;179.90;2099.20;;;;;;5115897;28;20475;-64
2021/12/29 03:33:37;;;;;;;54.03;24.98;;;180.00;2099.20;;;;;;5097421;28;20027;-65
2021/12/29 03:36:04;;;;;;;52.95;23.65;;;179.90;2124.80;;;;;;5115691;28;20030;-64
2021/12/29 03:38:34;;;;;;;51.65;24.98;;;179.90;2099.20;;;;;;5096765;28;20028;-64
2021/12/29 03:41:01;;;;;;;54.10;24.38;;;179.90;2099.20;;;;;;5115783;28;20067;-64
2021/12/29 03:43:28;;;;;;;59.05;24.60;;;179.90;2124.80;;;;;;5115084;28;20084;-63
2021/12/29 03:45:55;;;;;;;52.80;24.25;;;179.90;2099.20;;;;;;5115683;28;20020;-64
2021/12/29 03:48:23;;;;;;;48.42;22.08;;;179.90;2099.20;;;;;;5115337;28;20073;-64
2021/12/29 03:50:49;;;;;;;47.38;22.48;;;179.90;2124.80;;;;;;5115401;28;20534;-59
2021/12/29 03:53:16;;;;;;;49.40;21.23;;;179.90;2099.20;;;;;;5115426;28;20024;-63
2021/12/29 03:55:48;;;;;;;46.17;22.60;;;180.00;2099.20;;;;;;5114103;28;20024;-62
2021/12/29 03:58:15;;;;;;;44.33;21.67;;;179.90;2124.80;;;;;;5115111;28;20552;-62
2021/12/29 04:00:41;;;;;;;45.83;20.10;;;180.00;2099.20;;;;;;5115143;28;20111;-63
2021/12/29 04:03:07;;;;;;;46.80;20.98;;;180.00;2099.20;;;;;;5114818;28;20051;-64
2021/12/29 04:05:33;;;;;;;47.10;20.33;;;180.10;2176.00;;;;;;5115059;28;20023;-62
2021/12/29 04:07:59;;;;;;;46.08;20.92;;;204.80;2124.80;;;;;;5115167;28;20044;-62
2021/12/29 04:10:25;;;;;;;44.35;20.83;;;204.80;2099.20;;;;;;5114816;28;20040;-63
2021/12/29 04:12:51;;;;;;;39.50;18.15;;;180.10;2124.80;;;;;;5115101;28;20145;-67
2021/12/29 04:15:17;;;;;;;51.65;22.05;;;180.10;2150.40;;;;;;5114845;28;20027;-62
2021/12/29 04:17:45;;;;;;;45.33;20.60;;;204.80;2099.20;;;;;;5114580;28;20033;-62
2021/12/29 04:22:58;;;;;;;65.85;24.73;;;204.80;2124.80;;;;;;5115168;28;20035;-61
2021/12/29 04:25:25;;;;;;;58.65;24.80;;;205.00;2124.80;;;;;;5114811;28;20024;-61
2021/12/29 04:27:56;;;;;;;49.00;20.90;;;205.00;2124.80;;;;;;5114588;28;20035;-63
2021/12/29 04:30:24;;;;;;;128.25;43.95;;;205.00;2124.80;;;;;;5114528;28;20058;-61
2021/12/29 04:32:52;;;;;;;65.18;26.17;;;205.20;2227.20;;;;;;5096468;28;20028;-62
2021/12/29 04:35:17;;;;;;;62.58;26.58;;;205.20;2124.80;;;;;;5114631;28;20461;-62
2021/12/29 04:37:43;;;;;;;53.08;25.52;;;205.10;2099.20;;;;;;5114775;28;20093;-62
2021/12/29 04:40:09;;;;;;;46.90;22.88;;;205.10;2099.20;;;;;;5114736;28;20098;-62
2021/12/29 04:42:35;;;;;;;41.75;21.15;;;205.10;2099.20;;;;;;5114640;28;20426;-62
2021/12/29 04:45:01;;;;;;;42.35;19.88;;;205.20;2099.20;;;;;;5114620;28;20031;-62
2021/12/29 04:47:30;;;;;;;36.80;20.05;;;205.20;2099.20;;;;;;5113993;28;20453;-61
2021/12/29 04:50:02;;;;;;;36.78;20.65;;;205.20;2099.20;;;;;;5114943;28;20023;-62
2021/12/29 04:52:29;;;;;;;43.38;22.52;;;205.20;2073.60;;;;;;5114181;28;20030;-63
2021/12/29 04:54:55;;;;;;;41.15;22.48;;;205.20;2073.60;;;;;;5113555;28;20032;-63
2021/12/29 04:57:21;;;;;;;36.90;20.75;;;205.30;2073.60;;;;;;5114480;28;20072;-62
2021/12/29 04:59:47;;;;;;;37.45;20.42;;;205.20;2073.60;;;;;;5114165;28;20103;-63
2021/12/29 05:02:13;;;;;;;34.42;19.98;;;205.30;2073.60;;;;;;5114451;28;20031;-63
2021/12/29 05:04:46;;;;;;;36.42;19.98;;;205.30;2048.00;;;;;;5114430;28;20023;-63
2021/12/29 05:09:58;;;;;;;36.63;22.73;;;205.30;2048.00;;;;;;5114288;28;20050;-62
2021/12/29 05:12:23;;;;;;;38.28;23.42;;;205.40;2048.00;;;;;;5113695;28;20027;-62
2021/12/29 05:14:49;;;;;;;42.63;24.52;;;205.40;2048.00;;;;;;5113780;28;20019;-62
2021/12/29 05:17:15;;;;;;;47.03;26.05;;;205.40;2048.00;;;;;;5114058;28;20042;-61
2021/12/29 05:19:41;;;;;;;44.90;26.38;;;205.40;2022.40;;;;;;5114254;28;20039;-61
2021/12/29 05:22:07;;;;;;;49.30;27.00;;;205.40;2022.40;;;;;;5113979;28;20068;-61
2021/12/29 05:24:33;;;;;;;50.65;28.15;;;205.40;2022.40;;;;;;5114115;28;20035;-61
2021/12/29 05:26:59;;;;;;;58.47;30.67;;;205.40;2022.40;;;;;;5113942;28;20041;-61
2021/12/29 05:29:25;;;;;;;52.55;30.52;;;205.40;2022.40;;;;;;5113817;28;20028;-61
2021/12/29 05:31:51;;;;;;;61.53;33.60;;;205.40;2022.40;;;;;;5113419;28;20027;-61
2021/12/29 05:34:16;;;;;;;62.10;37.38;;;205.30;2022.40;;;;;;5113971;28;20028;-61
2021/12/29 05:36:42;;;;;;;55.53;32.00;;;205.40;2022.40;;;;;;5113772;28;20016;-61
2021/12/29 05:39:08;;;;;;;51.42;31.17;;;205.30;2022.40;;;;;;5114015;28;20031;-61
2021/12/29 05:41:34;;;;;;;55.92;32.25;;;205.30;2022.40;;;;;;5113694;28;20381;-61
2021/12/29 05:43:59;;;;;;;53.88;31.15;;;205.30;2048.00;;;;;;5113813;28;20076;-61
2021/12/29 05:46:25;;;;;;;51.67;29.33;;;205.30;2022.40;;;;;;5113948;28;20107;-61
2021/12/29 05:48:51;;;;;;;49.75;30.10;;;205.30;2048.00;;;;;;5113438;28;20028;-61
2021/12/29 05:51:17;;;;;;;45.90;28.55;;;205.20;2022.40;;;;;;5113364;28;20028;-61
2021/12/29 05:53:43;;;;;;;46.10;27.63;;;205.20;2048.00;;;;;;5094905;28;20044;-61
2021/12/29 05:56:09;;;;;;;46.45;26.75;;;205.30;2048.00;;;;;;5113846;28;20027;-61
2021/12/29 05:58:36;;;;;;;43.47;26.15;;;205.20;2048.00;;;;;;5113899;28;20023;-61
2021/12/29 06:01:02;;;;;;;40.30;25.85;;;205.30;2048.00;;;;;;5113674;28;20111;-62
2021/12/29 06:03:28;;;;;;;40.45;25.05;;;205.30;2048.00;;;;;;5094289;28;20453;-62
2021/12/29 06:05:53;;;;;;;43.97;24.90;;;205.30;2048.00;;;;;;5113703;28;20031;-62
2021/12/29 06:08:19;;;;;;;39.42;24.50;;;205.40;2022.40;;;;;;5113823;28;20366;-61
2021/12/29 06:10:45;;;;;;;40.67;25.13;;;205.30;2022.40;;;;;;5113823;28;20034;-62
2021/12/29 06:13:11;;;;;;;42.00;25.63;;;205.30;2022.40;;;;;;5113574;28;20429;-62
2021/12/29 06:15:36;;;;;;;38.83;23.77;;;205.30;2022.40;;;;;;5113598;28;20468;-62
2021/12/29 06:18:03;;;;;;;40.95;25.30;;;205.30;2022.40;;;;;;5114009;28;20508;-61
2021/12/29 06:20:29;;;;;;;43.53;27.63;;;205.40;2022.40;;;;;;5117347;28;20483;-61
2021/12/29 06:22:55;;;;;;;46.50;29.85;;;205.30;2022.40;;;;;;5117599;28;20032;-61
2021/12/29 06:25:21;;;;;;;42.22;28.67;;;205.40;2022.40;;;;;;5117562;28;20415;-61
2021/12/29 06:27:47;;;;;;;45.95;29.23;;;205.40;2022.40;;;;;;5117278;28;20051;-61
2021/12/29 06:30:16;;;;;;;48.97;29.73;;;205.40;2022.40;;;;;;5098398;28;20398;-61
2021/12/29 06:32:44;;;;;;;53.20;31.23;;;205.30;2022.40;;;;;;5116947;28;20108;-61
2021/12/29 06:35:11;;;;;;;63.20;35.95;;;205.40;2022.40;;;;;;5098781;28;20031;-61
2021/12/29 06:37:37;;;;;;;55.15;32.40;;;205.40;2022.40;;;;;;5116703;28;20044;-61
2021/12/29 06:40:04;;;;;;;47.20;28.17;;;205.30;2022.40;;;;;;5116946;28;20884;-61
2021/12/29 06:42:30;;;;;;;51.92;29.20;;;205.20;2022.40;;;;;;5116389;28;20110;-61
2021/12/29 06:44:57;;;;;;;42.28;25.02;;;205.10;2048.00;;;;;;5116826;28;20054;-61
2021/12/29 06:47:26;;;;;;;41.92;25.52;;;205.10;2048.00;;;;;;5116623;28;20048;-61
2021/12/29 06:49:52;;;;;;;49.25;29.10;;;205.10;2048.00;;;;;;5098281;28;20126;-61
2021/12/29 06:52:18;;;;;;;47.00;29.70;;;205.00;2048.00;;;;;;5116407;28;20099;-61
2021/12/29 06:54:44;;;;;;;46.85;29.45;;;205.00;2048.00;;;;;;5116517;28;20388;-61
2021/12/29 06:57:10;;;;;;;43.00;26.92;;;205.00;2048.00;;;;;;5116586;28;20043;-61
2021/12/29 06:59:36;;;;;;;45.13;27.23;;;205.10;2048.00;;;;;;5116532;28;20461;-61
2021/12/29 07:02:02;;;;;;;44.78;26.27;;;205.10;2048.00;;;;;;5116954;28;20457;-61
2021/12/29 07:04:28;;;;;;;40.83;25.08;;;205.10;2048.00;;;;;;5116403;28;20470;-60
2021/12/29 07:06:54;;;;;;;40.80;25.73;;;205.20;2048.00;;;;;;5116032;28;20024;-61
2021/12/29 07:09:20;;;;;;;49.58;28.48;;;205.20;2048.00;;;;;;5116797;28;20055;-60
2021/12/29 07:11:46;;;;;;;69.65;38.95;;;205.10;2048.00;;;;;;5116420;28;20027;-60
2021/12/29 07:14:12;;;;;;;81.65;46.50;;;205.00;2048.00;;;;;;5116286;28;20028;-61
2021/12/29 07:16:39;;;;;;;73.05;41.05;;;204.90;2073.60;;;;;;5115583;28;20063;-61
2021/12/29 07:19:06;;;;;;;58.63;33.30;;;204.80;2073.60;;;;;;5115898;28;20043;-57
2021/12/29 07:21:32;;;;;;;55.15;31.20;;;204.80;2073.60;;;;;;5096665;28;20537;-58
2021/12/29 07:23:58;;;;;;;50.15;30.08;;;180.10;2073.60;;;;;;5115703;28;20024;-58
2021/12/29 07:26:24;;;;;;;46.45;27.55;;;180.00;2099.20;;;;;;5115964;28;20114;-58
2021/12/29 07:28:51;;;;;;;46.88;28.30;;;180.10;2099.20;;;;;;5115665;28;20042;-58
2021/12/29 07:31:17;;;;;;;60.97;33.83;;;180.00;2099.20;;;;;;5115879;28;20027;-57
2021/12/29 07:33:43;;;;;;;63.72;35.83;;;180.00;2124.80;;;;;;5115684;28;20393;-58
2021/12/29 07:36:11;;;;;;;78.22;40.55;;;204.80;2099.20;;;;;;5115871;28;20024;-58
2021/12/29 07:38:38;;;;;;;77.05;45.72;;;180.00;2124.80;;;;;;5115604;28;20487;-57
2021/12/29 07:41:04;;;;;;;72.13;41.63;;;180.00;2124.80;;;;;;5115549;28;20030;-58
2021/12/29 07:43:29;;;;;;;66.75;38.17;;;180.10;2099.20;;;;;;5115616;28;20035;-61
2021/12/29 07:45:55;;;;;;;55.40;33.92;;;180.10;2124.80;;;;;;5115314;28;20012;-61
2021/12/29 07:48:27;;;;;;;53.67;31.20;;;180.10;2099.20;;;;;;5115335;28;20354;-61
2021/12/29 07:50:53;;;;;;;55.30;32.65;;;180.10;2124.80;;;;;;5115338;28;20115;-61
2021/12/29 07:53:19;;;;;;;57.03;36.35;;;180.10;2099.20;;;;;;5115143;28;20113;-61
2021/12/29 07:55:44;;;;;;;58.05;36.50;;;180.10;2124.80;;;;;;5115272;28;20069;-60
2021/12/29 07:58:10;;;;;;;58.17;34.88;;;180.10;2124.80;;;;;;5114821;28;20012;-61
2021/12/29 08:00:36;;;;;;;61.75;36.20;;;180.10;2099.20;;;;;;5096844;28;20070;-61
2021/12/29 08:03:02;;;;;;;59.03;34.10;;;180.10;2099.20;;;;;;5096266;28;20039;-61
2021/12/29 08:05:28;;;;;;;65.53;40.25;;;180.10;2099.20;;;;;;5095792;28;20366;-61
2021/12/29 08:07:53;;;;;;;76.25;50.72;;;180.00;2124.80;;;;;;5114597;28;20035;-64
2021/12/29 08:10:19;;;;;;;73.15;44.63;;;180.00;2099.20;;;;;;5114706;28;20077;-61
2021/12/29 08:12:45;;;;;;;72.25;42.42;;;180.00;2124.80;;;;;;5096795;28;20031;-61
2021/12/29 08:15:11;;;;;;;60.72;34.97;;;180.00;2124.80;;;;;;5113898;28;20124;-61
2021/12/29 08:17:39;;;;;;;57.45;34.33;;;180.00;2124.80;;;;;;5115012;28;20104;-62
2021/12/29 08:20:05;;;;;;;55.88;32.22;;;180.10;2099.20;;;;;;5114589;28;20033;-61
2021/12/29 08:22:31;;;;;;;60.35;32.63;;;180.10;2099.20;;;;;;5110780;28;20469;-61
2021/12/29 08:24:57;;;;;;;65.75;35.30;;;180.00;2124.80;;;;;;5103930;28;20051;-61
2021/12/29 08:27:23;;;;;;;64.10;35.33;;;180.00;2124.80;;;;;;5104985;28;20059;-61
2021/12/29 08:29:49;;;;;;;62.35;33.47;;;180.00;2124.80;;;;;;5102871;28;20071;-61
2021/12/29 08:32:14;;;;;;;54.22;32.72;;;180.10;2099.20;;;;;;5085630;28;20032;-61
2021/12/29 08:34:41;;;;;;;61.75;32.92;;;180.10;2124.80;;;;;;5104413;28;20028;-61
2021/12/29 08:37:07;;;;;;;66.03;33.88;;;204.80;2176.00;;;;;;5067644;28;20054;-60
2021/12/29 08:39:34;;;;;;;63.65;34.40;;;204.80;2099.20;;;;;;5086038;28;20066;-61
2021/12/29 08:42:00;;;;;;;83.85;40.47;;;204.80;2099.20;;;;;;5084838;28;20369;-61
2021/12/29 08:44:25;;;;;;;93.28;42.28;;;204.80;2099.20;;;;;;5097089;28;20031;-62
2021/12/29 08:46:51;;;;;;;80.30;40.25;;;204.90;2099.20;;;;;;5093902;28;20024;-62
2021/12/29 08:49:17;;;;;;;75.07;35.85;;;204.90;2099.20;;;;;;5093918;28;20032;-62
2021/12/29 08:51:43;;;;;;;71.22;36.95;;;204.90;2099.20;;;;;;5093465;28;20024;-61
2021/12/29 08:54:09;;;;;;;69.82;37.95;;;204.90;2124.80;;;;;;5094011;28;20024;-61
2021/12/29 08:56:35;;;;;;;77.22;41.13;;;204.90;2099.20;;;;;;5094090;28;20161;-62
2021/12/29 08:59:00;;;;;;;71.35;40.13;;;205.30;2252.80;;;;;;5093764;28;20070;-60
2021/12/29 09:01:27;;;;;;;73.45;38.05;;;205.50;2150.40;;;;;;5093974;28;20073;-62
2021/12/29 09:03:53;;;;;;;64.38;34.63;;;205.40;2048.00;;;;;;5093852;28;20480;-61
2021/12/29 09:06:19;;;;;;;70.68;37.83;;;205.40;2048.00;;;;;;5094024;28;20093;-61
2021/12/29 09:08:46;;;;;;;78.57;42.72;;;205.40;2048.00;;;;;;5093681;28;20576;-61
2021/12/29 09:11:12;;;;;;;86.28;45.20;;;205.30;2073.60;;;;;;5094021;28;20381;-62
2021/12/29 09:13:39;;;;;;;77.32;43.45;;;205.20;2073.60;;;;;;5093782;28;20066;-62
2021/12/29 09:16:05;;;;;;;73.68;39.25;;;205.20;2073.60;;;;;;5093700;28;20192;-60
2021/12/29 09:18:33;;;;;;;71.65;37.47;;;205.10;2073.60;;;;;;5093651;28;20070;-59
2021/12/29 09:21:07;;;;;;;79.38;39.42;;;205.10;2099.20;;;;;;5092301;28;20051;-59
2021/12/29 09:23:36;;;;;;;72.65;39.10;;;205.00;2099.20;;;;;;5092081;28;20031;-58
2021/12/29 09:26:04;;;;;;;73.85;39.65;;;205.00;2099.20;;;;;;5092101;28;20107;-58
2021/12/29 09:28:30;;;;;;;78.68;39.63;;;205.00;2124.80;;;;;;5092302;28;20082;-58
2021/12/29 09:30:56;;;;;;;101.82;49.15;;;205.00;2099.20;;;;;;5089033;28;20473;-58
2021/12/29 09:33:22;;;;;;;114.22;59.58;;;205.00;2099.20;;;;;;5092181;28;20024;-58
2021/12/29 09:35:51;;;;;;;108.38;58.22;;;205.00;2124.80;;;;;;5091557;28;20473;-59
2021/12/29 09:38:19;;;;;;;96.68;49.88;;;205.00;2124.80;;;;;;5091897;28;20114;-59
2021/12/29 09:40:47;;;;;;;98.85;48.88;;;205.10;2124.80;;;;;;5092206;28;20024;-58
2021/12/29 09:43:14;;;;;;;94.55;48.85;;;205.00;2124.80;;;;;;5092152;28;20028;-58
2021/12/29 09:45:41;;;;;;;91.82;47.95;;;205.00;2124.80;;;;;;5093328;28;20425;-58
2021/12/29 09:48:07;;;;;;;98.55;52.60;;;205.00;2150.40;;;;;;5091536;28;20111;-58
2021/12/29 09:50:33;;;;;;;104.70;53.83;;;205.00;2150.40;;;;;;5091444;28;20485;-58
2021/12/29 09:53:00;;;;;;;138.63;79.68;;;205.00;2150.40;;;;;;5091973;28;20020;-58
2021/12/29 09:55:26;;;;;;;217.75;120.10;;;205.00;2150.40;;;;;;5074123;28;20039;-58
2021/12/29 09:57:55;;;;;;;112.93;65.28;;;205.10;2124.80;;;;;;5090731;28;20016;-58
2021/12/29 10:00:35;;;;;;;84.40;46.95;;;205.10;2150.40;;;;;;5097187;28;20036;-59
2021/12/29 10:03:05;;;;;;;78.38;40.92;;;205.10;2150.40;;;;;;5092047;28;20020;-57
2021/12/29 10:05:31;;;;;;;86.63;46.85;;;205.10;2124.80;;;;;;5095608;28;20492;-58
2021/12/29 10:08:08;;;;;;;84.05;46.03;;;205.10;2124.80;;;;;;5095708;28;20376;-59
2021/12/29 10:10:36;;;;;;;93.60;56.90;;;205.20;2150.40;;;;;;5092613;28;20031;-59
2021/12/29 10:13:03;;;;;;;85.18;50.33;;;205.20;2124.80;;;;;;5095181;28;20099;-58
2021/12/29 10:15:31;;;;;;;78.32;44.30;;;205.20;2124.80;;;;;;5075920;28;20027;-60
2021/12/29 10:18:24;;;;;;;85.03;52.22;;;205.20;2150.40;;;;;;5094374;28;20024;-59
2021/12/29 10:20:51;;;;;;;77.22;45.85;;;205.30;2150.40;;;;;;5086446;28;20370;-58
2021/12/29 10:23:30;;;;;;;74.45;44.17;;;205.30;2150.40;;;;;;5094332;28;20027;-58
2021/12/29 10:26:03;;;;;;;65.85;38.05;;;205.30;2124.80;;;;;;5094878;28;20036;-58
2021/12/29 10:28:31;;;;;;;66.50;37.67;;;205.30;2124.80;;;;;;5094813;28;20063;-57
2021/12/29 10:31:00;;;;;;;77.57;41.78;;;205.30;2124.80;;;;;;5094101;28;20031;-59
2021/12/29 10:33:32;;;;;;;70.75;41.08;;;205.40;2176.00;;;;;;5095305;28;20016;-58
2021/12/29 10:36:08;;;;;;;78.25;42.60;;;205.30;2124.80;;;;;;5077939;28;20496;-58
2021/12/29 10:38:34;;;;;;;81.85;45.97;;;205.30;2124.80;;;;;;5096256;28;20036;-58
2021/12/29 10:41:04;;;;;;;92.10;49.78;;;205.40;2124.80;;;;;;5096427;28;20028;-58
2021/12/29 10:43:30;;;;;;;125.30;62.50;;;205.40;2124.80;;;;;;5096523;28;20107;-59
2021/12/29 10:45:57;;;;;;;135.25;69.00;;;205.40;2124.80;;;;;;5096220;28;20028;-58
2021/12/29 10:48:29;;;;;;;118.68;63.50;;;205.40;2124.80;;;;;;5096599;28;20068;-58
2021/12/29 10:50:56;;;;;;;94.20;49.58;;;205.40;2124.80;;;;;;5096122;28;20038;-58
2021/12/29 10:53:22;;;;;;;87.88;46.90;;;205.40;2099.20;;;;;;5077439;28;20035;-58
2021/12/29 10:55:48;;;;;;;81.63;47.08;;;205.40;2124.80;;;;;;5095769;28;20096;-58
2021/12/29 10:58:17;;;;;;;83.10;46.40;;;205.40;2099.20;;;;;;5095067;28;20119;-58
2021/12/29 11:00:46;;;;;;;79.85;41.83;;;205.50;2124.80;;;;;;5095540;28;20047;-59
2021/12/29 11:03:19;;;;;;;84.47;44.85;;;205.50;2124.80;;;;;;5095935;28;20035;-58
2021/12/29 11:05:58;;;;;;;74.63;39.10;;;205.50;2124.80;;;;;;5095606;28;20350;-57
2021/12/29 11:08:30;;;;;;;71.28;37.92;;;205.40;2124.80;;;;;;5095717;28;20024;-58
2021/12/29 11:11:03;;;;;;;71.82;41.50;;;205.40;2124.80;;;;;;5095713;28;20034;-58
2021/12/29 11:13:30;;;;;;;85.15;42.75;;;205.40;2124.80;;;;;;5096059;28;20073;-59
2021/12/29 11:15:57;;;;;;;77.13;39.47;;;205.40;2124.80;;;;;;5095696;28;20048;-58
2021/12/29 11:18:23;;;;;;;73.75;39.42;;;205.40;2150.40;;;;;;5094587;28;20543;-59
2021/12/29 11:20:55;;;;;;;72.88;39.88;;;205.50;2150.40;;;;;;5094255;28;20457;-58
2021/12/29 11:23:22;;;;;;;76.45;42.85;;;205.50;2124.80;;;;;;5093748;28;20032;-58
2021/12/29 11:25:50;;;;;;;75.15;41.42;;;205.50;2124.80;;;;;;5094861;28;20043;-60
2021/12/29 11:28:22;;;;;;;86.78;46.67;;;205.50;2124.80;;;;;;5095351;28;20031;-58
2021/12/29 11:30:48;;;;;;;81.95;43.38;;;205.50;2150.40;;;;;;5094013;28;20040;-58
2021/12/29 11:33:14;;;;;;;77.72;43.40;;;205.50;2124.80;;;;;;5093969;28;20102;-58
2021/12/29 11:35:42;;;;;;;76.20;44.05;;;205.50;2124.80;;;;;;5093848;28;20034;-60
2021/12/29 11:38:09;;;;;;;87.30;46.28;;;205.50;2124.80;;;;;;5094251;28;20056;-58
2021/12/29 11:40:40;;;;;;;89.57;47.20;;;205.50;2124.80;;;;;;5094959;28;20530;-58
2021/12/29 11:43:07;;;;;;;87.85;46.63;;;205.50;2124.80;;;;;;5095527;28;20025;-58
2021/12/29 11:45:35;;;;;;;80.72;44.22;;;205.50;2124.80;;;;;;5095227;28;20027;-58
2021/12/29 11:48:01;;;;;;;72.78;41.90;;;205.50;2124.80;;;;;;5095157;28;20504;-58
2021/12/29 11:50:34;;;;;;;76.30;41.45;;;205.50;2124.80;;;;;;5095487;28;20032;-58
2021/12/29 11:53:17;;;;;;;82.45;43.72;;;205.50;2124.80;;;;;;5094927;28;20366;-59
2021/12/29 11:55:48;;;;;;;83.68;47.35;;;205.60;2124.80;;;;;;5095048;28;20036;-59
2021/12/29 11:58:41;;;;;;;104.15;57.75;;;205.60;2124.80;;;;;;5095001;28;20031;-58
2021/12/29 12:01:15;;;;;;;92.50;50.13;;;205.50;2124.80;;;;;;5094554;28;20477;-58
2021/12/29 12:03:44;;;;;;;87.38;52.10;;;205.60;2150.40;;;;;;5094484;28;20027;-60